Pagina principale
METAR-TAF:

METAR-TAF

Aeroporti :

Aeroporto di Cagliari-Elmas

Cagliari, Italia

latitudine: 39-15N, longitudine: 009-04E, altezza: 4 m

Osservazione

Il bollettino è stato emesso 31 minuti fa, alle 13:20 UTC
Vento 13 kt da ovest/nord-ovest, variando fra ovest e nord/nord-ovest
Temperature 23°C
Umidità 61%
Pressione 1008 hPa
Visibilità 10 km o più
Poco nuvoloso ad un'altezza di 4000 ft

METAR: LIEE 271320Z 29013KT 270V330 9999 FEW040 23/15 Q1008

Ora: 15:51 (13:51 UTC)

Previsione

Il bollettino è stato emesso 2 ore e 51 minuti fa, alle 11:00 UTC
Previsione valida dal 27 alle 12 UTC al 28 alle 12 UTC
Vento 14 kt da nord-ovest
Visibilità 10 km o più
Nubi sparse ad un'altezza di 2000 ft
Temporaneamente
dal 27 alle 12 UTC al 27 alle 17 UTC
Vento 16 kt da nord/nord-ovest con raffiche fino a 26 kt
Visibilità: 4000 m
temporale, pioggia

TAF: LIEE 271100Z 2712/2812 32014KT 9999 SCT020 TEMPO 2712/2717 33016G26KT 4000 TSRA

Osservazioni e previsioni meteorologiche di più di 4000 aeroporti (messaggi METAR e TAF).

Le stazioni disponibili sono rappresentate dai dischi gialli e rossi sulla carta.

Puntare il mouse per vedere il nome della stazione.

Clicca sopra per visualizzare le osservazioni e previsioni meteorologiche.

Per cambiare la mappa : fare clic sui pulsanti verdi con una croce nera per ingrandire, il pulsante verde con un trattino per diminuire, o sulla freccia verde per le mappe adiacenti.


METAR-TAF: